createdAt,value
2022-11-14T00:02:16.331Z,5.71
2022-11-14T00:05:06.739Z,5.72
2022-11-14T00:07:54.627Z,5.73
2022-11-14T00:10:46.008Z,5.72
2022-11-14T00:13:36.098Z,5.72
2022-11-14T00:16:26.375Z,5.71
2022-11-14T00:19:14.403Z,5.70
2022-11-14T00:22:02.286Z,5.71
2022-11-14T00:24:50.319Z,5.73
2022-11-14T00:27:38.052Z,5.76
2022-11-14T00:30:30.270Z,5.77
2022-11-14T00:33:21.476Z,5.77
2022-11-14T00:36:09.470Z,5.78
2022-11-14T00:38:56.940Z,5.78
2022-11-14T00:41:44.500Z,5.79
2022-11-14T00:44:32.215Z,5.81
2022-11-14T00:47:20.264Z,5.81
2022-11-14T00:50:10.698Z,5.82
2022-11-14T00:52:58.607Z,5.85
2022-11-14T00:55:46.053Z,5.92
2022-11-14T00:58:36.426Z,5.96
2022-11-14T01:01:29.411Z,5.98
2022-11-14T01:04:17.041Z,5.98
2022-11-14T01:07:10.580Z,5.99
2022-11-14T01:09:58.378Z,5.99
2022-11-14T01:12:49.311Z,5.97
2022-11-14T01:15:48.781Z,5.98
2022-11-14T01:18:38.059Z,6.00
2022-11-14T01:21:25.813Z,6.04
2022-11-14T01:24:15.497Z,6.06
2022-11-14T01:27:03.299Z,6.06
2022-11-14T01:29:51.259Z,6.08
2022-11-14T01:32:39.142Z,6.08
2022-11-14T01:35:27.144Z,6.07
2022-11-14T01:38:15.996Z,6.05
2022-11-14T01:41:06.085Z,6.07
2022-11-14T01:43:55.123Z,6.08
2022-11-14T01:46:47.562Z,6.08
2022-11-14T01:49:46.996Z,6.06
2022-11-14T01:52:39.422Z,6.03
2022-11-14T01:55:27.565Z,5.99
2022-11-14T01:58:17.048Z,5.97
2022-11-14T02:01:06.472Z,5.99
2022-11-14T02:03:56.515Z,6.00
2022-11-14T02:06:46.420Z,6.02
2022-11-14T02:09:42.957Z,6.04
2022-11-14T02:12:31.498Z,6.03
2022-11-14T02:15:20.335Z,6.03
2022-11-14T02:18:08.076Z,6.05
2022-11-14T02:20:55.610Z,6.09
2022-11-14T02:23:43.478Z,6.12
2022-11-14T02:26:36.936Z,6.14
2022-11-14T02:29:24.795Z,6.12
2022-11-14T02:32:12.438Z,6.12
2022-11-14T02:34:59.963Z,6.14
2022-11-14T02:37:48.899Z,6.19
2022-11-14T02:40:36.996Z,6.23
2022-11-14T02:43:24.618Z,6.20
2022-11-14T02:46:12.322Z,6.13
2022-11-14T02:48:59.981Z,6.11
2022-11-14T02:51:47.363Z,6.08
2022-11-14T02:54:34.796Z,6.05
2022-11-14T02:57:24.763Z,6.02
2022-11-14T03:00:15.148Z,5.98
2022-11-14T03:03:07.621Z,5.95
2022-11-14T03:06:02.464Z,5.95
2022-11-14T03:08:50.258Z,5.91
2022-11-14T03:11:39.455Z,5.91
2022-11-14T03:14:31.635Z,5.92
2022-11-14T03:17:19.010Z,5.89
2022-11-14T03:20:08.760Z,5.86
2022-11-14T03:22:58.774Z,5.86
2022-11-14T03:25:46.401Z,5.87
2022-11-14T03:28:37.129Z,5.86
2022-11-14T03:31:28.376Z,5.89
2022-11-14T03:34:15.850Z,5.90
2022-11-14T03:37:08.726Z,5.91
2022-11-14T03:39:56.647Z,5.87
2022-11-14T03:42:46.413Z,5.84
2022-11-14T03:45:33.908Z,5.82
2022-11-14T03:48:21.391Z,5.82
2022-11-14T03:51:08.874Z,5.81
2022-11-14T03:53:56.418Z,5.80
2022-11-14T03:56:47.891Z,5.85
2022-11-14T03:59:37.776Z,5.87
2022-11-14T04:02:25.269Z,5.86
2022-11-14T04:05:13.012Z,5.86
2022-11-14T04:08:00.732Z,5.88
2022-11-14T04:10:51.281Z,5.89
2022-11-14T04:13:42.384Z,5.92
2022-11-14T04:16:31.382Z,5.94
2022-11-14T04:19:20.329Z,5.94
2022-11-14T04:22:08.374Z,5.93
2022-11-14T04:24:56.043Z,5.93
2022-11-14T04:27:44.272Z,5.94
2022-11-14T04:30:37.757Z,5.93
2022-11-14T04:33:26.016Z,5.90
2022-11-14T04:36:14.048Z,5.86
2022-11-14T04:39:06.046Z,5.88
2022-11-14T04:41:53.880Z,5.88
2022-11-14T04:44:41.468Z,5.85
2022-11-14T04:47:30.404Z,5.84
2022-11-14T04:50:21.673Z,5.85
2022-11-14T04:53:09.761Z,5.86
2022-11-14T04:55:57.413Z,5.86
2022-11-14T04:58:45.295Z,5.83
2022-11-14T05:01:33.357Z,5.82
2022-11-14T05:04:33.172Z,5.80
2022-11-14T05:07:23.682Z,5.79
2022-11-14T05:10:14.953Z,5.77
2022-11-14T05:13:04.825Z,5.71
2022-11-14T05:15:52.867Z,5.66
2022-11-14T05:18:45.810Z,5.66
2022-11-14T05:21:37.054Z,5.64
2022-11-14T05:24:28.697Z,5.58
2022-11-14T05:27:16.504Z,5.55
2022-11-14T05:30:04.944Z,5.54
2022-11-14T05:32:53.031Z,5.53
2022-11-14T05:35:40.713Z,5.51
2022-11-14T05:38:28.970Z,5.50
2022-11-14T05:41:22.204Z,5.48
2022-11-14T05:44:09.998Z,5.48
2022-11-14T05:46:57.624Z,5.50
2022-11-14T05:49:48.491Z,5.53
2022-11-14T05:52:39.012Z,5.54
2022-11-14T05:55:26.945Z,5.55
2022-11-14T05:58:18.295Z,5.53
2022-11-14T06:01:08.878Z,5.50
2022-11-14T06:03:56.848Z,5.50
2022-11-14T06:06:44.682Z,5.49
2022-11-14T06:09:32.116Z,5.49
2022-11-14T06:12:23.095Z,5.52
2022-11-14T06:15:10.997Z,5.55
2022-11-14T06:17:59.689Z,5.61
2022-11-14T06:21:14.753Z,5.68
2022-11-14T06:24:04.879Z,5.78
2022-11-14T06:26:52.893Z,5.86
2022-11-14T06:29:43.191Z,5.91
2022-11-14T06:32:45.281Z,5.91
2022-11-14T06:35:33.536Z,5.88
2022-11-14T06:38:21.622Z,5.89
2022-11-14T06:41:24.808Z,5.91
2022-11-14T06:44:15.720Z,5.93
2022-11-14T06:47:10.913Z,5.91
2022-11-14T06:50:01.849Z,5.83
2022-11-14T06:52:53.849Z,5.73
2022-11-14T06:55:42.116Z,5.62
2022-11-14T06:58:36.583Z,5.63
2022-11-14T07:01:29.042Z,5.68
2022-11-14T07:04:21.971Z,5.68
2022-11-14T07:07:12.566Z,5.68
2022-11-14T07:10:01.732Z,5.72
2022-11-14T07:12:58.339Z,5.77
2022-11-14T07:15:55.917Z,5.80
2022-11-14T07:18:43.889Z,5.82
2022-11-14T07:21:34.742Z,5.91
2022-11-14T07:24:23.775Z,5.98
2022-11-14T07:27:11.692Z,6.01
2022-11-14T07:29:59.816Z,6.05
2022-11-14T07:32:47.641Z,6.08
2022-11-14T07:35:43.646Z,6.10
2022-11-14T07:38:40.739Z,6.09
2022-11-14T07:41:28.804Z,6.12
2022-11-14T07:44:16.641Z,6.06
2022-11-14T07:47:13.032Z,6.05
2022-11-14T07:50:00.834Z,6.09
2022-11-14T07:52:52.832Z,6.09
2022-11-14T07:55:44.084Z,6.09
2022-11-14T07:58:37.063Z,6.17
2022-11-14T08:01:25.729Z,6.17
2022-11-14T08:04:15.806Z,6.17
2022-11-14T08:07:09.592Z,6.18
2022-11-14T08:09:57.537Z,6.18
2022-11-14T08:12:48.384Z,6.22
2022-11-14T08:15:40.788Z,6.30
2022-11-14T08:18:30.571Z,6.35
2022-11-14T08:21:18.525Z,6.36
2022-11-14T08:24:08.243Z,6.38
2022-11-14T08:26:58.039Z,6.36
2022-11-14T08:29:49.943Z,6.34
2022-11-14T08:32:37.815Z,6.40
2022-11-14T08:35:25.264Z,6.47
2022-11-14T08:38:12.638Z,6.51
2022-11-14T08:41:08.067Z,6.53
2022-11-14T08:44:03.896Z,6.60
2022-11-14T08:46:52.237Z,6.62
2022-11-14T08:49:39.823Z,6.61
2022-11-14T08:52:28.627Z,6.73
2022-11-14T08:55:23.613Z,6.81
2022-11-14T08:58:11.670Z,6.84
2022-11-14T09:01:09.503Z,6.88
2022-11-14T09:03:59.997Z,6.91
2022-11-14T09:06:49.463Z,6.98
2022-11-14T09:09:40.433Z,7.07
2022-11-14T09:12:30.736Z,7.21
2022-11-14T09:15:38.129Z,7.40
2022-11-14T09:18:33.874Z,7.57
2022-11-14T09:21:26.294Z,7.70
2022-11-14T09:24:18.329Z,7.73
2022-11-14T09:27:11.291Z,7.77
2022-11-14T09:30:09.019Z,7.86
2022-11-14T09:33:10.052Z,7.94
2022-11-14T09:36:18.308Z,7.97
2022-11-14T09:43:02.007Z,8.03
2022-11-14T09:45:56.762Z,8.12
2022-11-14T09:48:57.243Z,8.21
2022-11-14T09:52:56.699Z,8.28
2022-11-14T09:56:05.937Z,8.35
2022-11-14T09:59:22.327Z,8.44
2022-11-14T10:03:11.466Z,8.56
2022-11-14T10:07:08.686Z,8.78
2022-11-14T10:10:42.930Z,8.99
2022-11-14T10:14:07.924Z,9.04
2022-11-14T10:17:56.853Z,9.09
2022-11-14T10:21:04.744Z,9.21
2022-11-14T10:24:08.066Z,9.33
2022-11-14T10:27:52.524Z,9.41
2022-11-14T10:31:14.939Z,9.54
2022-11-14T10:38:32.161Z,10.04
2022-11-14T10:41:56.306Z,10.22
2022-11-14T10:45:03.330Z,10.41
2022-11-14T10:48:28.362Z,10.46
2022-11-14T10:52:08.190Z,10.50
2022-11-14T10:55:43.491Z,10.42
2022-11-14T10:58:48.964Z,10.30
2022-11-14T11:02:23.024Z,10.18
2022-11-14T11:05:33.545Z,10.03
2022-11-14T11:08:51.566Z,9.91
2022-11-14T11:12:28.330Z,9.74
2022-11-14T11:15:42.839Z,9.63
2022-11-14T11:18:50.737Z,9.56
2022-11-14T11:23:32.130Z,9.55
2022-11-14T11:26:38.399Z,9.50
2022-11-14T11:29:44.632Z,9.45
2022-11-14T11:32:42.499Z,9.45
2022-11-14T11:35:33.422Z,9.48
2022-11-14T11:38:42.842Z,9.44
2022-11-14T11:45:28.818Z,9.32
2022-11-14T11:48:51.462Z,9.29
2022-11-14T11:52:08.436Z,9.27
2022-11-14T11:55:22.581Z,9.23
2022-11-14T11:59:37.755Z,9.16
2022-11-14T12:02:55.939Z,9.12
2022-11-14T12:06:23.303Z,9.08
2022-11-14T12:13:27.830Z,9.06
2022-11-14T12:17:05.313Z,9.08
2022-11-14T12:20:50.087Z,8.96
2022-11-14T12:24:27.600Z,8.89
2022-11-14T12:27:54.293Z,8.90
2022-11-14T12:31:11.875Z,8.91
2022-11-14T12:34:17.369Z,8.91
2022-11-14T12:37:36.770Z,8.94
2022-11-14T12:40:42.545Z,8.96
2022-11-14T12:43:44.268Z,8.96
2022-11-14T12:47:34.584Z,9.02
2022-11-14T12:50:56.512Z,9.05
2022-11-14T12:53:54.559Z,9.01
2022-11-14T12:56:58.735Z,9.00
2022-11-14T13:00:07.328Z,9.02
2022-11-14T13:04:09.413Z,9.04
2022-11-14T13:07:37.922Z,9.03
2022-11-14T13:11:14.395Z,9.05
2022-11-14T13:14:33.361Z,9.06
2022-11-14T13:18:16.630Z,9.07
2022-11-14T13:22:01.555Z,9.09
2022-11-14T13:32:51.754Z,9.17
2022-11-14T13:36:05.398Z,9.11
2022-11-14T13:40:04.514Z,9.09
2022-11-14T13:47:29.721Z,9.07
2022-11-14T13:50:51.271Z,9.05
2022-11-14T13:53:57.309Z,9.01
2022-11-14T13:58:02.682Z,8.92
2022-11-14T14:01:36.279Z,8.85
2022-11-14T14:09:36.110Z,8.77
2022-11-14T14:13:35.627Z,8.73
2022-11-14T14:17:03.752Z,8.69
2022-11-14T14:20:55.683Z,8.67
2022-11-14T14:28:11.022Z,8.54
2022-11-14T14:31:39.151Z,8.49
2022-11-14T14:34:44.897Z,8.43
2022-11-14T14:38:18.603Z,8.39
2022-11-14T14:41:45.864Z,8.33
2022-11-14T14:44:58.729Z,8.26
2022-11-14T14:48:32.326Z,8.21
2022-11-14T14:51:39.627Z,8.13
2022-11-14T14:55:32.177Z,8.00
2022-11-14T14:58:40.661Z,7.89
2022-11-14T15:02:00.673Z,7.89
2022-11-14T15:06:49.156Z,7.81
2022-11-14T15:09:20.218Z,7.73
2022-11-14T15:12:30.130Z,7.69
2022-11-14T15:16:56.006Z,7.62
2022-11-14T15:20:35.543Z,7.51
2022-11-14T15:23:32.024Z,7.43
2022-11-14T15:26:46.620Z,7.38
2022-11-14T15:30:37.145Z,7.31
2022-11-14T15:33:37.755Z,7.22
2022-11-14T15:37:29.776Z,7.15
2022-11-14T15:42:01.953Z,7.04
2022-11-14T15:43:53.759Z,7.00
2022-11-14T15:47:39.792Z,6.97
2022-11-14T15:50:40.442Z,6.91
2022-11-14T15:53:36.316Z,6.87
2022-11-14T15:56:35.051Z,6.87
2022-11-14T15:59:36.747Z,6.85
2022-11-14T16:02:37.224Z,6.83
2022-11-14T16:05:56.862Z,6.78
2022-11-14T16:09:02.409Z,6.76
2022-11-14T16:11:59.087Z,6.72
2022-11-14T16:14:51.278Z,6.64
2022-11-14T16:17:46.379Z,6.58
2022-11-14T16:20:41.917Z,6.51
2022-11-14T16:23:42.210Z,6.42
2022-11-14T16:26:49.872Z,6.31
2022-11-14T16:29:40.131Z,6.27
2022-11-14T16:32:55.606Z,6.24
2022-11-14T16:35:55.048Z,6.19
2022-11-14T16:39:20.727Z,6.13
2022-11-14T16:43:53.667Z,6.04
2022-11-14T16:45:43.760Z,6.03
2022-11-14T16:48:37.484Z,6.04
2022-11-14T16:52:15.527Z,6.01
2022-11-14T16:55:10.526Z,5.95
2022-11-14T16:58:20.609Z,5.89
2022-11-14T17:01:38.319Z,5.90
2022-11-14T17:04:33.404Z,5.90
2022-11-14T17:07:53.034Z,5.88
2022-11-14T17:10:51.672Z,5.86
2022-11-14T17:17:22.146Z,5.76
2022-11-14T17:20:21.339Z,5.77
2022-11-14T17:23:23.527Z,5.75
2022-11-14T17:26:33.023Z,5.72
2022-11-14T17:29:41.282Z,5.66
2022-11-14T17:33:11.364Z,5.62
2022-11-14T17:36:50.603Z,5.59
2022-11-14T17:39:52.163Z,5.56
2022-11-14T17:42:59.212Z,5.58
2022-11-14T17:46:14.266Z,5.59
2022-11-14T17:49:08.005Z,5.62
2022-11-14T17:52:04.914Z,5.65
2022-11-14T17:55:07.211Z,5.66
2022-11-14T17:58:05.572Z,5.70
2022-11-14T18:01:59.820Z,5.74
2022-11-14T18:05:10.708Z,5.73
2022-11-14T18:08:10.968Z,5.75
2022-11-14T18:11:41.441Z,5.75
2022-11-14T18:19:42.436Z,5.75
2022-11-14T18:21:33.716Z,5.72
2022-11-14T18:24:53.908Z,5.74
2022-11-14T18:28:14.468Z,5.76
2022-11-14T18:31:14.015Z,5.74
2022-11-14T18:38:16.326Z,5.75
2022-11-14T18:41:28.977Z,5.75
2022-11-14T18:44:51.153Z,5.72
2022-11-14T18:47:45.183Z,5.72
2022-11-14T18:50:41.825Z,5.66
2022-11-14T18:53:55.394Z,5.65
2022-11-14T18:56:51.972Z,5.63
2022-11-14T19:00:12.222Z,5.52
2022-11-14T19:03:26.123Z,5.51
2022-11-14T19:07:18.495Z,5.53
2022-11-14T19:10:29.601Z,5.55
2022-11-14T19:17:21.153Z,5.48
2022-11-14T19:21:39.975Z,5.42
2022-11-14T19:25:09.314Z,5.33
2022-11-14T19:28:39.571Z,5.35
2022-11-14T19:32:17.002Z,5.38
2022-11-14T19:35:27.711Z,5.39
2022-11-14T19:38:38.602Z,5.39
2022-11-14T19:42:15.603Z,5.38
2022-11-14T19:45:20.617Z,5.32
2022-11-14T19:48:50.193Z,5.34
2022-11-14T19:51:53.648Z,5.37
2022-11-14T19:55:23.069Z,5.38
2022-11-14T19:59:24.382Z,5.34
2022-11-14T20:02:02.982Z,5.35
2022-11-14T20:05:20.902Z,5.40
2022-11-14T20:08:31.927Z,5.43
2022-11-14T20:11:48.441Z,5.43
2022-11-14T20:19:25.031Z,5.24
2022-11-14T20:23:55.160Z,5.19
2022-11-14T20:26:16.399Z,5.18
2022-11-14T20:29:23.937Z,5.20
2022-11-14T20:32:52.938Z,5.18
2022-11-14T20:37:10.495Z,5.18
2022-11-14T20:40:10.258Z,5.10
2022-11-14T20:43:20.722Z,5.16
2022-11-14T20:50:43.322Z,5.13
2022-11-14T20:53:48.777Z,5.12
2022-11-14T20:57:13.458Z,5.10
2022-11-14T21:00:34.333Z,4.99
2022-11-14T21:03:59.382Z,5.00
2022-11-14T21:07:28.855Z,5.06
2022-11-14T21:10:43.616Z,5.13
2022-11-14T21:13:59.400Z,5.17
2022-11-14T21:17:03.717Z,5.21
2022-11-14T21:20:06.246Z,5.26
2022-11-14T21:24:14.920Z,5.28
2022-11-14T21:30:06.810Z,5.24
2022-11-14T21:37:09.798Z,5.23
2022-11-14T21:40:04.307Z,5.23
2022-11-14T21:43:20.464Z,5.25
2022-11-14T21:46:22.498Z,5.25
2022-11-14T21:49:58.522Z,5.29
2022-11-14T21:53:19.440Z,5.28
2022-11-14T21:56:46.664Z,5.27
2022-11-14T21:59:42.825Z,5.32
2022-11-14T22:03:06.954Z,5.35
2022-11-14T22:09:57.494Z,5.30
2022-11-14T22:13:37.090Z,5.32
2022-11-14T22:16:29.150Z,5.28
2022-11-14T22:19:31.273Z,5.23
2022-11-14T22:22:44.443Z,5.30
2022-11-14T22:26:33.829Z,5.32
2022-11-14T22:29:38.820Z,5.30
2022-11-14T22:32:29.222Z,5.34
2022-11-14T22:35:31.211Z,5.33
2022-11-14T22:38:27.149Z,5.36
2022-11-14T22:41:55.212Z,5.37
2022-11-14T22:45:03.086Z,5.36
2022-11-14T22:48:56.038Z,5.32
2022-11-14T22:51:58.756Z,5.30
2022-11-14T22:54:50.553Z,5.30
2022-11-14T22:58:01.610Z,5.35
2022-11-14T23:00:59.862Z,5.43
2022-11-14T23:04:19.783Z,5.46
2022-11-14T23:07:44.179Z,5.47
2022-11-14T23:11:03.291Z,5.48
2022-11-14T23:14:00.850Z,5.53
2022-11-14T23:16:52.830Z,5.57
2022-11-14T23:19:50.743Z,5.58
2022-11-14T23:26:16.673Z,5.48
2022-11-14T23:29:07.509Z,5.47
2022-11-14T23:32:03.183Z,5.42
2022-11-14T23:34:59.770Z,5.35
2022-11-14T23:37:50.250Z,5.32
2022-11-14T23:40:51.409Z,5.28
2022-11-14T23:43:55.709Z,5.23
2022-11-14T23:47:13.778Z,5.21
2022-11-14T23:50:06.795Z,5.22
2022-11-14T23:53:19.420Z,5.22
2022-11-14T23:56:17.372Z,5.23
2022-11-14T23:59:08.352Z,5.21
